Time;durP1;ratioP1;P1;durP2;ratioP2;P2;SDS_P1;SDS_P2;PMS_P1;PMS_P2;Temp;Humidity;BMP_temperature;BMP_pressure;BME280_temperature;BME280_humidity;BME280_pressure;Samples;Min_cycle;Max_cycle;Signal;HPM_P1;HPM_P2
2023/03/01 00:02:04;;;;;;;4.70;1.23;;;;;;;;;;4976230;28;20034;-64
2023/03/01 00:04:31;;;;;;;0.73;0.63;;;;;;;;;;4975725;28;20470;-64
2023/03/01 00:06:58;;;;;;;1.35;0.90;;;;;;;;;;4973387;28;20030;-64
2023/03/01 00:09:24;;;;;;;1.75;1.20;;;;;;;;;;4971253;28;20035;-64
2023/03/01 00:11:51;;;;;;;1.40;0.68;;;;;;;;;;4971092;28;20077;-64
2023/03/01 00:14:18;;;;;;;3.58;1.33;;;;;;;;;;4971179;28;20026;-63
2023/03/01 00:16:45;;;;;;;1.65;0.90;;;;;;;;;;4973041;28;20030;-63
2023/03/01 00:19:16;;;;;;;2.15;1.23;;;;;;;;;;4976287;28;20054;-63
2023/03/01 00:21:43;;;;;;;2.13;0.88;;;;;;;;;;4975373;28;20031;-64
2023/03/01 00:24:10;;;;;;;1.50;1.08;;;;;;;;;;4975814;28;20101;-64
2023/03/01 00:26:37;;;;;;;1.83;1.15;;;;;;;;;;4975904;28;20065;-63
2023/03/01 00:29:03;;;;;;;1.80;1.17;;;;;;;;;;4973594;28;20101;-63
2023/03/01 00:31:31;;;;;;;1.73;1.10;;;;;;;;;;4970365;28;21829;-63
2023/03/01 00:34:00;;;;;;;2.38;1.42;;;;;;;;;;4970536;28;20042;-63
2023/03/01 00:36:28;;;;;;;1.98;1.20;;;;;;;;;;4970668;28;20077;-63
2023/03/01 00:38:55;;;;;;;1.90;1.25;;;;;;;;;;4971816;28;20054;-63
2023/03/01 00:41:22;;;;;;;0.63;0.63;;;;;;;;;;4975644;28;20106;-63
2023/03/01 00:43:49;;;;;;;5.18;1.42;;;;;;;;;;4975922;28;20031;-63
2023/03/01 00:46:18;;;;;;;3.88;1.17;;;;;;;;;;4975761;28;20450;-63
2023/03/01 00:48:45;;;;;;;6.78;1.52;;;;;;;;;;4975977;28;20460;-63
2023/03/01 00:51:16;;;;;;;1.58;0.95;;;;;;;;;;4973394;28;20037;-63
2023/03/01 00:53:43;;;;;;;2.20;1.17;;;;;;;;;;4970329;28;20516;-63
2023/03/01 00:56:10;;;;;;;1.23;0.77;;;;;;;;;;4970235;28;20033;-64
2023/03/01 00:58:37;;;;;;;1.38;1.15;;;;;;;;;;4970251;28;20584;-63
2023/03/01 01:01:16;;;;;;;2.47;1.48;;;;;;;;;;4971248;28;20038;-63
2023/03/01 01:04:09;;;;;;;3.20;1.33;;;;;;;;;;4975716;28;20023;-63
2023/03/01 01:06:37;;;;;;;2.60;1.40;;;;;;;;;;4972645;28;20441;-63
2023/03/01 01:09:05;;;;;;;1.47;1.07;;;;;;;;;;4974159;28;20449;-63
2023/03/01 01:11:32;;;;;;;3.90;1.53;;;;;;;;;;4975251;28;20053;-64
2023/03/01 01:13:59;;;;;;;2.33;1.30;;;;;;;;;;4972776;28;20033;-63
2023/03/01 01:16:28;;;;;;;5.40;1.13;;;;;;;;;;4969715;28;20105;-63
2023/03/01 01:18:54;;;;;;;4.67;1.27;;;;;;;;;;4969508;28;20027;-63
2023/03/01 01:21:22;;;;;;;3.17;1.40;;;;;;;;;;4969941;28;20110;-62
2023/03/01 01:23:49;;;;;;;3.13;1.80;;;;;;;;;;4971427;28;20102;-63
2023/03/01 01:26:18;;;;;;;3.00;1.47;;;;;;;;;;4974939;28;20049;-63
2023/03/01 01:28:44;;;;;;;3.97;1.90;;;;;;;;;;4975012;28;20389;-63
2023/03/01 01:31:11;;;;;;;2.97;1.60;;;;;;;;;;4974788;28;20025;-63
2023/03/01 01:33:40;;;;;;;6.20;2.17;;;;;;;;;;4974665;28;20485;-63
2023/03/01 01:36:08;;;;;;;3.90;2.23;;;;;;;;;;4972325;28;20027;-63
2023/03/01 01:38:35;;;;;;;20.97;3.27;;;;;;;;;;4969707;28;20031;-63
2023/03/01 01:41:02;;;;;;;7.03;2.70;;;;;;;;;;4969474;28;20033;-63
2023/03/01 01:43:28;;;;;;;5.10;1.70;;;;;;;;;;4969281;28;20469;-63
2023/03/01 01:46:02;;;;;;;1.87;1.17;;;;;;;;;;4970782;28;20030;-63
2023/03/01 01:48:42;;;;;;;2.77;1.50;;;;;;;;;;4974617;28;20027;-64
2023/03/01 01:51:13;;;;;;;1.97;1.27;;;;;;;;;;4974606;28;20034;-64
2023/03/01 01:53:40;;;;;;;3.40;1.50;;;;;;;;;;4974689;28;20031;-63
2023/03/01 01:56:08;;;;;;;1.77;1.00;;;;;;;;;;4974159;28;20497;-63
2023/03/01 01:58:35;;;;;;;3.47;1.77;;;;;;;;;;4971728;28;20046;-63
2023/03/01 02:01:02;;;;;;;7.70;1.97;;;;;;;;;;4969081;28;20110;-63
2023/03/01 02:03:33;;;;;;;4.60;1.50;;;;;;;;;;4968459;28;20493;-63
2023/03/01 02:06:03;;;;;;;10.57;1.47;;;;;;;;;;4969173;28;20034;-63
2023/03/01 02:08:31;;;;;;;4.63;2.00;;;;;;;;;;4970369;28;20037;-63
2023/03/01 02:10:59;;;;;;;1.90;1.20;;;;;;;;;;4973563;28;20113;-62
2023/03/01 02:13:27;;;;;;;5.50;2.07;;;;;;;;;;4973869;28;20035;-63
2023/03/01 02:15:53;;;;;;;6.37;2.23;;;;;;;;;;4974059;28;20034;-63
2023/03/01 02:18:21;;;;;;;5.77;1.80;;;;;;;;;;4974048;28;20118;-63
2023/03/01 02:20:51;;;;;;;2.70;1.43;;;;;;;;;;4971521;28;20054;-63
2023/03/01 02:23:18;;;;;;;1.77;1.20;;;;;;;;;;4968748;28;20050;-62
2023/03/01 02:25:45;;;;;;;2.80;1.47;;;;;;;;;;4968457;28;20031;-63
2023/03/01 02:28:18;;;;;;;4.20;2.00;;;;;;;;;;4968856;28;20082;-63
2023/03/01 02:33:35;;;;;;;4.50;2.00;;;;;;;;;;4950466;28;20478;-63
2023/03/01 02:36:05;;;;;;;5.60;2.33;;;;;;;;;;4973803;28;20031;-62
2023/03/01 02:38:32;;;;;;;2.90;1.47;;;;;;;;;;4959785;28;20027;-62
2023/03/01 02:41:00;;;;;;;2.00;1.40;;;;;;;;;;4954549;28;20031;-62
2023/03/01 02:43:29;;;;;;;6.57;1.43;;;;;;;;;;4951827;28;20403;-62
2023/03/01 02:45:58;;;;;;;2.80;1.37;;;;;;;;;;4948965;28;20019;-63
2023/03/01 02:48:25;;;;;;;1.60;1.20;;;;;;;;;;4949035;28;20114;-63
2023/03/01 02:51:12;;;;;;;7.30;1.93;;;;;;;;;;4964210;28;20497;-62
2023/03/01 02:53:57;;;;;;;2.70;1.60;;;;;;;;;;4970996;28;20062;-63
2023/03/01 02:56:24;;;;;;;3.10;1.83;;;;;;;;;;4973753;28;20018;-62
2023/03/01 02:58:51;;;;;;;4.20;1.33;;;;;;;;;;4973602;28;20022;-62
2023/03/01 03:01:21;;;;;;;1.80;1.30;;;;;;;;;;4969204;28;20023;-62
2023/03/01 03:03:48;;;;;;;7.97;1.87;;;;;;;;;;4961162;28;20608;-63
2023/03/01 03:06:15;;;;;;;4.27;1.40;;;;;;;;;;4950850;28;20158;-63
2023/03/01 03:08:42;;;;;;;2.03;0.87;;;;;;;;;;4962061;28;20027;-62
2023/03/01 03:11:08;;;;;;;1.63;0.97;;;;;;;;;;4952233;28;20039;-62
2023/03/01 03:13:35;;;;;;;1.67;1.13;;;;;;;;;;4949187;28;20019;-63
2023/03/01 03:16:03;;;;;;;3.20;1.30;;;;;;;;;;4951687;28;20522;-63
2023/03/01 03:18:30;;;;;;;1.80;1.00;;;;;;;;;;4954205;28;20394;-62
2023/03/01 03:20:57;;;;;;;1.83;0.90;;;;;;;;;;4954038;29;20027;-63
2023/03/01 03:23:24;;;;;;;2.33;1.40;;;;;;;;;;4972235;28;20027;-62
2023/03/01 03:25:51;;;;;;;3.80;1.60;;;;;;;;;;4973150;28;20418;-63
2023/03/01 03:28:18;;;;;;;3.10;1.20;;;;;;;;;;4970465;28;20054;-63
2023/03/01 03:30:45;;;;;;;2.77;1.73;;;;;;;;;;4954891;28;20032;-63
2023/03/01 03:33:12;;;;;;;2.87;1.40;;;;;;;;;;4968376;28;20039;-62
2023/03/01 03:35:41;;;;;;;5.20;1.30;;;;;;;;;;4972150;28;20023;-62
2023/03/01 03:38:15;;;;;;;4.90;1.53;;;;;;;;;;4973992;28;20084;-62
2023/03/01 03:40:46;;;;;;;2.28;1.33;;;;;;;;;;4977239;28;20019;-62
2023/03/01 03:43:14;;;;;;;2.20;1.00;;;;;;;;;;4976724;28;20441;-62
2023/03/01 03:45:41;;;;;;;0.60;0.60;;;;;;;;;;4976983;28;20555;-62
2023/03/01 03:48:09;;;;;;;7.20;1.63;;;;;;;;;;4976867;28;20400;-63
2023/03/01 03:50:36;;;;;;;2.83;1.87;;;;;;;;;;4974229;28;20042;-62
2023/03/01 03:53:04;;;;;;;3.27;1.87;;;;;;;;;;4971417;28;20031;-62
2023/03/01 03:55:30;;;;;;;5.90;2.40;;;;;;;;;;4971730;28;20031;-63
2023/03/01 03:58:07;;;;;;;14.67;3.07;;;;;;;;;;4971399;28;20114;-62
2023/03/01 04:00:36;;;;;;;4.07;2.00;;;;;;;;;;4973675;28;20147;-62
2023/03/01 04:03:02;;;;;;;16.40;2.10;;;;;;;;;;4968447;28;20031;-62
2023/03/01 04:05:29;;;;;;;1.70;1.20;;;;;;;;;;4971847;28;20034;-62
2023/03/01 04:08:02;;;;;;;4.77;2.17;;;;;;;;;;4976470;28;20437;-62
2023/03/01 04:10:33;;;;;;;21.50;2.00;;;;;;;;;;4976317;28;20073;-62
2023/03/01 04:13:00;;;;;;;1.20;0.90;;;;;;;;;;4973882;28;20019;-61
2023/03/01 04:15:27;;;;;;;2.97;1.53;;;;;;;;;;4971041;28;20050;-61
2023/03/01 04:17:55;;;;;;;1.70;1.20;;;;;;;;;;4970890;28;20023;-62
2023/03/01 04:20:25;;;;;;;5.30;2.37;;;;;;;;;;4971318;28;20019;-62
2023/03/01 04:22:53;;;;;;;7.13;1.90;;;;;;;;;;4973312;28;20045;-62
2023/03/01 04:25:20;;;;;;;5.80;1.93;;;;;;;;;;4976512;28;20026;-62
2023/03/01 04:27:47;;;;;;;4.17;1.77;;;;;;;;;;4975378;28;20057;-62
2023/03/01 04:30:16;;;;;;;2.73;1.47;;;;;;;;;;4976257;28;20053;-62
2023/03/01 04:32:43;;;;;;;2.07;1.67;;;;;;;;;;4976079;28;20031;-62
2023/03/01 04:35:10;;;;;;;9.50;1.70;;;;;;;;;;4973797;28;20031;-62
2023/03/01 04:37:36;;;;;;;5.00;2.30;;;;;;;;;;4970759;28;20031;-62
2023/03/01 04:40:16;;;;;;;2.33;1.60;;;;;;;;;;4971210;28;20019;-62
2023/03/01 04:42:43;;;;;;;1.90;1.30;;;;;;;;;;4971023;28;20034;-65
2023/03/01 04:45:16;;;;;;;4.33;1.73;;;;;;;;;;4972378;28;20030;-63
2023/03/01 04:47:47;;;;;;;2.83;1.93;;;;;;;;;;4975874;28;20027;-63
2023/03/01 04:50:15;;;;;;;5.40;2.77;;;;;;;;;;4975897;28;20483;-63
2023/03/01 04:52:42;;;;;;;1.30;1.03;;;;;;;;;;4975742;28;20537;-62
2023/03/01 04:55:10;;;;;;;2.60;0.87;;;;;;;;;;4974674;28;20082;-61
2023/03/01 04:57:36;;;;;;;2.57;1.73;;;;;;;;;;4973106;28;20027;-61
2023/03/01 05:00:37;;;;;;;6.03;1.80;;;;;;;;;;4970625;28;20058;-62
2023/03/01 05:02:59;;;;;;;3.87;1.13;;;;;;;;;;4961482;28;20031;-61
2023/03/01 05:05:27;;;;;;;3.43;1.57;;;;;;;;;;4956806;28;20050;-61
2023/03/01 05:07:54;;;;;;;1.27;0.80;;;;;;;;;;4965976;28;20029;-61
2023/03/01 05:10:21;;;;;;;3.63;1.70;;;;;;;;;;4971215;28;20031;-62
2023/03/01 05:12:48;;;;;;;5.40;1.93;;;;;;;;;;4965973;28;20363;-61
2023/03/01 05:15:15;;;;;;;2.20;1.23;;;;;;;;;;4973384;28;20090;-61
2023/03/01 05:17:41;;;;;;;3.57;2.30;;;;;;;;;;4972123;28;20027;-62
2023/03/01 05:20:09;;;;;;;2.03;1.60;;;;;;;;;;4963934;28;20023;-59
2023/03/01 05:22:36;;;;;;;27.97;1.70;;;;;;;;;;4970153;28;20038;-60
2023/03/01 05:25:04;;;;;;;3.53;1.50;;;;;;;;;;4969786;28;20413;-60
2023/03/01 05:27:31;;;;;;;2.23;1.33;;;;;;;;;;4970117;28;20039;-60
2023/03/01 05:29:58;;;;;;;1.03;0.93;;;;;;;;;;4971829;28;20035;-61
2023/03/01 05:32:24;;;;;;;5.30;1.30;;;;;;;;;;4974907;28;20031;-61
2023/03/01 05:34:52;;;;;;;2.20;1.37;;;;;;;;;;4975043;28;20022;-61
2023/03/01 05:37:19;;;;;;;2.97;1.33;;;;;;;;;;4975061;28;20046;-62
2023/03/01 05:39:46;;;;;;;1.47;1.10;;;;;;;;;;4974741;28;20042;-61
2023/03/01 05:42:13;;;;;;;2.80;1.53;;;;;;;;;;4971835;28;20035;-60
2023/03/01 05:44:40;;;;;;;2.83;1.40;;;;;;;;;;4970002;28;20486;-61
2023/03/01 05:47:06;;;;;;;1.53;1.07;;;;;;;;;;4969705;28;20045;-61
2023/03/01 05:49:33;;;;;;;4.10;0.77;;;;;;;;;;4969959;28;20058;-60
2023/03/01 05:52:01;;;;;;;4.27;0.93;;;;;;;;;;4971459;28;20034;-61
2023/03/01 05:54:28;;;;;;;1.43;1.10;;;;;;;;;;4974034;28;20369;-61
2023/03/01 05:56:54;;;;;;;2.73;1.70;;;;;;;;;;4974387;28;20490;-60
2023/03/01 05:59:21;;;;;;;1.97;1.23;;;;;;;;;;4974521;28;20033;-61
2023/03/01 06:01:48;;;;;;;1.03;0.90;;;;;;;;;;4974510;28;20034;-60
2023/03/01 06:04:14;;;;;;;1.83;1.33;;;;;;;;;;4972284;28;20482;-60
2023/03/01 06:06:41;;;;;;;1.80;1.40;;;;;;;;;;4969573;28;20019;-60
2023/03/01 06:09:09;;;;;;;1.53;1.07;;;;;;;;;;4969510;28;20039;-61
2023/03/01 06:11:37;;;;;;;3.13;1.43;;;;;;;;;;4969395;28;20031;-61
2023/03/01 06:14:06;;;;;;;1.20;1.10;;;;;;;;;;4970236;28;20082;-60
2023/03/01 06:16:32;;;;;;;2.50;1.50;;;;;;;;;;4973992;28;20474;-60
2023/03/01 06:18:59;;;;;;;1.87;1.27;;;;;;;;;;4974232;28;20030;-60
2023/03/01 06:21:26;;;;;;;3.10;1.17;;;;;;;;;;4974320;28;20031;-60
2023/03/01 06:23:52;;;;;;;2.00;1.00;;;;;;;;;;4973924;28;20497;-61
2023/03/01 06:26:19;;;;;;;2.77;1.03;;;;;;;;;;4972389;28;20034;-60
2023/03/01 06:28:46;;;;;;;2.93;1.70;;;;;;;;;;4968749;28;20486;-61
2023/03/01 06:31:13;;;;;;;2.57;1.17;;;;;;;;;;4969037;28;20030;-60
2023/03/01 06:33:40;;;;;;;4.93;2.80;;;;;;;;;;4968737;28;20489;-60
2023/03/01 06:36:07;;;;;;;11.57;1.77;;;;;;;;;;4969791;28;20089;-60
2023/03/01 06:38:34;;;;;;;3.43;1.97;;;;;;;;;;4974032;28;20376;-60
2023/03/01 06:41:01;;;;;;;1.90;1.10;;;;;;;;;;4973763;28;20027;-60
2023/03/01 06:43:28;;;;;;;1.90;1.20;;;;;;;;;;4973764;28;20502;-60
2023/03/01 06:45:55;;;;;;;3.10;1.77;;;;;;;;;;4973672;28;20035;-60
2023/03/01 06:48:22;;;;;;;2.80;1.50;;;;;;;;;;4972833;28;20050;-60
2023/03/01 06:50:49;;;;;;;5.07;2.03;;;;;;;;;;4968618;28;20045;-61
2023/03/01 06:53:15;;;;;;;13.20;1.27;;;;;;;;;;4968753;28;20030;-61
2023/03/01 06:55:42;;;;;;;1.67;1.07;;;;;;;;;;4968745;28;20038;-61
2023/03/01 06:58:10;;;;;;;1.73;1.13;;;;;;;;;;4968734;28;20023;-61
2023/03/01 07:00:37;;;;;;;1.40;0.97;;;;;;;;;;4973661;28;20022;-60
2023/03/01 07:03:03;;;;;;;9.87;1.67;;;;;;;;;;4973311;28;20018;-61
2023/03/01 07:05:31;;;;;;;2.20;1.33;;;;;;;;;;4972823;28;20023;-61
2023/03/01 07:07:57;;;;;;;6.40;1.70;;;;;;;;;;4973515;28;20046;-60
2023/03/01 07:10:24;;;;;;;8.13;1.37;;;;;;;;;;4973267;28;20034;-60
2023/03/01 07:12:51;;;;;;;2.10;1.50;;;;;;;;;;4968591;28;20047;-60
2023/03/01 07:15:18;;;;;;;6.20;1.50;;;;;;;;;;4968412;28;20043;-61
2023/03/01 07:17:47;;;;;;;4.20;1.77;;;;;;;;;;4968681;28;20034;-60
2023/03/01 07:20:15;;;;;;;0.70;0.70;;;;;;;;;;4968251;28;20486;-61
2023/03/01 07:22:42;;;;;;;1.30;1.10;;;;;;;;;;4973096;28;20090;-60
2023/03/01 07:25:09;;;;;;;2.00;1.20;;;;;;;;;;4973148;28;20081;-60
2023/03/01 07:27:36;;;;;;;2.03;1.40;;;;;;;;;;4973347;28;20035;-60
2023/03/01 07:30:03;;;;;;;1.33;0.93;;;;;;;;;;4973270;28;20034;-60
2023/03/01 07:32:30;;;;;;;1.83;1.17;;;;;;;;;;4973108;28;20078;-60
2023/03/01 07:34:57;;;;;;;1.60;0.80;;;;;;;;;;4968536;28;20429;-61
2023/03/01 07:37:23;;;;;;;3.30;2.07;;;;;;;;;;4968010;28;20031;-61
2023/03/01 07:39:50;;;;;;;10.77;2.10;;;;;;;;;;4968521;28;20057;-60
2023/03/01 07:42:17;;;;;;;1.03;0.87;;;;;;;;;;4967962;28;20058;-60
2023/03/01 07:44:44;;;;;;;5.20;1.73;;;;;;;;;;4972468;28;20026;-61
2023/03/01 07:47:10;;;;;;;2.00;1.30;;;;;;;;;;4973336;28;20023;-60
2023/03/01 07:49:37;;;;;;;1.50;1.00;;;;;;;;;;4973216;28;20039;-60
2023/03/01 07:52:04;;;;;;;8.67;1.00;;;;;;;;;;4973247;28;20077;-60
2023/03/01 07:54:30;;;;;;;2.30;1.47;;;;;;;;;;4972749;28;20030;-60
2023/03/01 07:56:58;;;;;;;3.17;0.77;;;;;;;;;;4968796;28;20110;-60
2023/03/01 07:59:28;;;;;;;4.10;1.47;;;;;;;;;;4968012;28;20333;-60
2023/03/01 08:01:56;;;;;;;2.00;0.63;;;;;;;;;;4968115;28;20100;-60
2023/03/01 08:04:24;;;;;;;5.30;1.47;;;;;;;;;;4968290;28;20425;-61
2023/03/01 08:06:52;;;;;;;1.33;1.03;;;;;;;;;;4971931;28;20402;-60
2023/03/01 08:09:18;;;;;;;2.47;1.23;;;;;;;;;;4972760;28;20534;-61
2023/03/01 08:11:45;;;;;;;3.23;1.10;;;;;;;;;;4972911;28;20022;-60
2023/03/01 08:14:12;;;;;;;1.00;0.70;;;;;;;;;;4973052;28;20031;-60
2023/03/01 08:16:39;;;;;;;2.00;0.73;;;;;;;;;;4973147;28;20058;-60
2023/03/01 08:19:07;;;;;;;7.30;1.00;;;;;;;;;;4972443;28;20034;-60
2023/03/01 08:21:37;;;;;;;3.13;0.93;;;;;;;;;;4971509;28;20023;-60
2023/03/01 08:24:05;;;;;;;2.33;1.20;;;;;;;;;;4971341;28;20044;-60
2023/03/01 08:26:32;;;;;;;2.63;1.13;;;;;;;;;;4971304;28;20386;-60
2023/03/01 08:29:00;;;;;;;1.50;1.17;;;;;;;;;;4974806;28;20045;-60
2023/03/01 08:31:29;;;;;;;2.53;0.70;;;;;;;;;;4976074;28;20038;-60
2023/03/01 08:33:57;;;;;;;1.50;0.97;;;;;;;;;;4975637;28;20031;-61
2023/03/01 08:36:25;;;;;;;1.70;0.93;;;;;;;;;;4976240;28;20030;-60
2023/03/01 08:38:52;;;;;;;1.43;0.83;;;;;;;;;;4976135;28;20102;-60
2023/03/01 08:41:19;;;;;;;2.40;1.43;;;;;;;;;;4971492;28;20038;-60
2023/03/01 08:43:46;;;;;;;1.63;0.93;;;;;;;;;;4971040;28;20027;-60
2023/03/01 08:46:13;;;;;;;1.50;1.10;;;;;;;;;;4971116;28;20022;-60
2023/03/01 08:48:42;;;;;;;0.90;0.80;;;;;;;;;;4971050;28;21204;-60
2023/03/01 08:51:10;;;;;;;2.73;1.20;;;;;;;;;;4973839;28;20039;-60
2023/03/01 08:53:37;;;;;;;1.50;1.13;;;;;;;;;;4975772;28;20026;-60
2023/03/01 08:56:04;;;;;;;0.97;0.77;;;;;;;;;;4975676;28;20106;-60
2023/03/01 08:58:30;;;;;;;3.83;1.50;;;;;;;;;;4976033;28;20409;-61
2023/03/01 09:00:57;;;;;;;0.97;0.87;;;;;;;;;;4975633;28;20038;-60
2023/03/01 09:03:25;;;;;;;1.13;0.83;;;;;;;;;;4972271;28;20033;-60
2023/03/01 09:05:52;;;;;;;4.13;1.70;;;;;;;;;;4970701;28;20034;-61
2023/03/01 09:08:19;;;;;;;2.13;1.43;;;;;;;;;;4970487;28;20057;-60
2023/03/01 09:10:46;;;;;;;1.03;0.77;;;;;;;;;;4970420;28;20034;-60
2023/03/01 09:13:13;;;;;;;1.87;1.07;;;;;;;;;;4972867;28;20019;-61
2023/03/01 09:15:40;;;;;;;1.03;0.70;;;;;;;;;;4975457;28;20027;-60
2023/03/01 09:18:06;;;;;;;2.23;1.33;;;;;;;;;;4975573;28;20362;-60
2023/03/01 09:20:33;;;;;;;2.73;0.87;;;;;;;;;;4975231;28;20022;-60
2023/03/01 09:23:00;;;;;;;0.60;0.60;;;;;;;;;;4975325;28;20280;-60
2023/03/01 09:25:28;;;;;;;0.93;0.77;;;;;;;;;;4972034;28;20030;-60
2023/03/01 09:27:55;;;;;;;0.73;0.60;;;;;;;;;;4970112;28;20030;-60
2023/03/01 09:30:22;;;;;;;2.10;1.43;;;;;;;;;;4968788;28;20355;-60
2023/03/01 09:32:49;;;;;;;2.00;1.40;;;;;;;;;;4970166;28;20027;-60
2023/03/01 09:35:15;;;;;;;1.27;1.17;;;;;;;;;;4972123;28;20267;-60
2023/03/01 09:37:45;;;;;;;1.53;0.87;;;;;;;;;;4974623;28;20030;-60
2023/03/01 09:40:17;;;;;;;1.23;0.90;;;;;;;;;;4974971;28;20299;-61
2023/03/01 09:42:49;;;;;;;3.60;1.27;;;;;;;;;;4975004;28;20022;-60
2023/03/01 09:45:24;;;;;;;1.40;0.80;;;;;;;;;;4975161;28;20261;-60
2023/03/01 09:47:53;;;;;;;1.13;0.73;;;;;;;;;;4971474;28;20311;-60
2023/03/01 09:50:21;;;;;;;0.67;0.60;;;;;;;;;;4969848;28;20033;-60
2023/03/01 09:52:51;;;;;;;1.63;0.97;;;;;;;;;;4969723;28;20598;-60
2023/03/01 09:55:38;;;;;;;1.90;1.13;;;;;;;;;;4969894;28;20260;-60
2023/03/01 09:58:24;;;;;;;9.37;1.67;;;;;;;;;;4973114;28;21231;-60
2023/03/01 10:00:51;;;;;;;1.97;1.10;;;;;;;;;;4964551;28;20295;-60
2023/03/01 10:03:32;;;;;;;5.57;1.23;;;;;;;;;;4974092;28;20276;-60
2023/03/01 10:06:05;;;;;;;1.57;0.83;;;;;;;;;;4974531;28;20771;-60
2023/03/01 10:08:35;;;;;;;0.97;0.83;;;;;;;;;;4974545;28;20259;-60
2023/03/01 10:11:02;;;;;;;1.03;0.57;;;;;;;;;;4969386;28;20440;-60
2023/03/01 10:13:38;;;;;;;1.40;0.83;;;;;;;;;;4969389;28;20363;-60
2023/03/01 10:16:11;;;;;;;1.23;0.80;;;;;;;;;;4969296;28;20283;-60
2023/03/01 10:18:38;;;;;;;0.40;0.40;;;;;;;;;;4969372;28;20300;-60
2023/03/01 10:21:15;;;;;;;1.00;0.80;;;;;;;;;;4974178;28;20280;-60
2023/03/01 10:23:42;;;;;;;1.40;0.93;;;;;;;;;;4973958;28;20272;-60
2023/03/01 10:26:20;;;;;;;1.13;0.80;;;;;;;;;;4973828;28;20308;-60
2023/03/01 10:28:47;;;;;;;2.07;0.73;;;;;;;;;;4974287;28;20684;-60
2023/03/01 10:31:21;;;;;;;0.90;0.80;;;;;;;;;;4973185;28;20261;-60
2023/03/01 10:33:53;;;;;;;0.60;0.60;;;;;;;;;;4968775;28;20285;-60
2023/03/01 10:36:19;;;;;;;2.77;1.67;;;;;;;;;;4969110;28;20035;-60
2023/03/01 10:38:53;;;;;;;1.13;0.60;;;;;;;;;;4968682;28;20265;-59
2023/03/01 10:41:23;;;;;;;0.87;0.77;;;;;;;;;;4969020;28;20300;-60
2023/03/01 10:43:51;;;;;;;2.47;1.63;;;;;;;;;;4973426;28;20272;-60
2023/03/01 10:46:26;;;;;;;1.30;1.03;;;;;;;;;;4973986;28;20257;-60
2023/03/01 10:48:52;;;;;;;;;;;;;;;;;;4974096;28;20387;-60
2023/03/01 10:51:20;;;;;;;2.10;1.33;;;;;;;;;;4973584;28;20264;-60
2023/03/01 10:53:51;;;;;;;1.07;0.73;;;;;;;;;;4972355;28;20269;-60
2023/03/01 10:56:18;;;;;;;2.33;1.23;;;;;;;;;;4968923;28;20272;-60
2023/03/01 10:59:01;;;;;;;7.20;1.90;;;;;;;;;;4968432;28;20272;-60
2023/03/01 11:01:32;;;;;;;4.10;1.50;;;;;;;;;;4968434;28;20722;-60
2023/03/01 11:04:08;;;;;;;1.03;0.80;;;;;;;;;;4970295;28;20604;-60
2023/03/01 11:06:36;;;;;;;1.27;1.00;;;;;;;;;;4973799;28;20827;-60
2023/03/01 11:09:15;;;;;;;1.23;0.77;;;;;;;;;;4973158;28;20297;-60
2023/03/01 11:11:42;;;;;;;2.70;1.10;;;;;;;;;;4973444;28;20268;-59
2023/03/01 11:14:15;;;;;;;2.10;1.37;;;;;;;;;;4973398;28;20284;-60
2023/03/01 11:16:44;;;;;;;1.00;0.90;;;;;;;;;;4970985;28;20249;-60
2023/03/01 11:19:10;;;;;;;1.47;0.90;;;;;;;;;;4968298;28;20275;-59
2023/03/01 11:21:42;;;;;;;0.73;0.70;;;;;;;;;;4968618;28;20768;-59
2023/03/01 11:24:14;;;;;;;3.53;0.83;;;;;;;;;;4968571;28;20268;-60
2023/03/01 11:26:45;;;;;;;1.27;0.57;;;;;;;;;;4970457;28;20362;-59
2023/03/01 11:29:32;;;;;;;1.03;0.77;;;;;;;;;;4973244;28;20287;-60
2023/03/01 11:32:01;;;;;;;0.90;0.60;;;;;;;;;;4972930;28;20620;-59
2023/03/01 11:34:54;;;;;;;1.77;0.87;;;;;;;;;;4973451;28;20268;-59
2023/03/01 11:37:29;;;;;;;1.17;0.80;;;;;;;;;;4951040;28;20328;-60
2023/03/01 11:40:13;;;;;;;0.47;0.47;;;;;;;;;;4968442;28;20256;-59
2023/03/01 11:42:47;;;;;;;0.80;0.60;;;;;;;;;;4968239;28;20351;-59
2023/03/01 11:45:14;;;;;;;1.23;0.70;;;;;;;;;;4968094;28;20264;-60
2023/03/01 11:47:49;;;;;;;1.77;1.13;;;;;;;;;;4968390;28;20691;-59
2023/03/01 11:50:29;;;;;;;2.30;0.77;;;;;;;;;;4973140;28;20468;-60
2023/03/01 11:53:14;;;;;;;7.37;1.00;;;;;;;;;;4975311;28;20265;-60
2023/03/01 11:55:41;;;;;;;5.65;1.17;;;;;;;;;;4976827;28;20293;-59
2023/03/01 11:58:11;;;;;;;1.77;0.93;;;;;;;;;;4976887;28;20034;-60
2023/03/01 12:00:55;;;;;;;3.10;1.13;;;;;;;;;;4975066;28;20822;-60
2023/03/01 12:03:34;;;;;;;2.10;1.53;;;;;;;;;;4971744;28;20339;-60
2023/03/01 12:06:10;;;;;;;0.57;0.57;;;;;;;;;;4971439;28;20273;-59
2023/03/01 12:08:42;;;;;;;1.90;0.80;;;;;;;;;;4971735;28;20316;-58
2023/03/01 12:11:22;;;;;;;1.73;0.60;;;;;;;;;;4974213;28;20372;-58
2023/03/01 12:14:04;;;;;;;2.50;0.93;;;;;;;;;;4976581;28;20276;-59
2023/03/01 12:17:00;;;;;;;1.57;1.07;;;;;;;;;;4976231;28;20280;-58
2023/03/01 12:19:45;;;;;;;2.45;1.38;;;;;;;;;;4924285;28;20274;-58
2023/03/01 12:22:25;;;;;;;1.17;1.00;;;;;;;;;;4976219;28;20019;-58
2023/03/01 12:25:08;;;;;;;0.80;0.60;;;;;;;;;;4971360;28;20038;-60
2023/03/01 12:27:41;;;;;;;3.43;1.73;;;;;;;;;;4971356;28;20252;-60
2023/03/01 12:30:14;;;;;;;2.27;1.47;;;;;;;;;;4971094;28;20315;-59
2023/03/01 12:32:48;;;;;;;1.73;1.03;;;;;;;;;;4971531;28;20600;-60
2023/03/01 12:35:25;;;;;;;0.50;0.50;;;;;;;;;;4976277;28;20319;-61
2023/03/01 12:37:55;;;;;;;0.40;0.40;;;;;;;;;;4976088;28;20249;-60
2023/03/01 12:40:28;;;;;;;1.77;0.57;;;;;;;;;;4975995;28;20319;-58
2023/03/01 12:42:58;;;;;;;1.00;0.87;;;;;;;;;;4975602;28;20377;-59
2023/03/01 12:45:43;;;;;;;1.93;1.00;;;;;;;;;;4974076;28;20732;-59
2023/03/01 12:48:19;;;;;;;2.03;1.10;;;;;;;;;;4971182;28;20257;-59
2023/03/01 12:50:53;;;;;;;0.60;0.50;;;;;;;;;;4970610;28;20037;-59
2023/03/01 12:53:20;;;;;;;12.10;0.90;;;;;;;;;;4970942;28;20293;-59
2023/03/01 12:55:47;;;;;;;24.10;1.53;;;;;;;;;;4973251;28;20825;-59
2023/03/01 12:58:32;;;;;;;0.80;0.67;;;;;;;;;;4975867;28;20264;-59
2023/03/01 13:01:14;;;;;;;0.40;0.40;;;;;;;;;;4975806;28;20289;-59
2023/03/01 13:03:59;;;;;;;1.33;0.70;;;;;;;;;;4974981;28;20505;-59
2023/03/01 13:06:25;;;;;;;;;;;;;;;;;;4976127;28;20582;-59
2023/03/01 13:09:01;;;;;;;0.70;0.60;;;;;;;;;;4970635;28;20441;-59
2023/03/01 13:11:28;;;;;;;1.67;1.07;;;;;;;;;;4970627;28;20267;-58
2023/03/01 13:14:14;;;;;;;1.73;1.03;;;;;;;;;;4970239;28;20284;-59
2023/03/01 13:16:44;;;;;;;1.43;0.83;;;;;;;;;;4969935;28;20628;-59
2023/03/01 13:19:15;;;;;;;7.73;2.10;;;;;;;;;;4975275;28;20261;-58
2023/03/01 13:21:43;;;;;;;10.90;2.13;;;;;;;;;;4975323;28;20257;-58
2023/03/01 13:24:25;;;;;;;6.63;1.20;;;;;;;;;;4975009;28;20268;-59
2023/03/01 13:27:06;;;;;;;8.70;1.87;;;;;;;;;;4974829;28;20831;-59
2023/03/01 13:29:53;;;;;;;1.90;1.07;;;;;;;;;;4973011;28;20396;-58
2023/03/01 13:32:23;;;;;;;5.00;1.50;;;;;;;;;;4969994;28;20285;-58
2023/03/01 13:34:57;;;;;;;3.63;2.13;;;;;;;;;;4969980;28;20291;-59
2023/03/01 13:37:25;;;;;;;17.50;3.40;;;;;;;;;;4969516;28;20265;-58
2023/03/01 13:39:53;;;;;;;26.17;3.80;;;;;;;;;;4971828;28;20261;-59
2023/03/01 13:42:28;;;;;;;7.23;3.03;;;;;;;;;;4974850;28;20340;-59
2023/03/01 13:44:55;;;;;;;3.77;2.20;;;;;;;;;;4974896;28;20648;-59
2023/03/01 13:47:22;;;;;;;6.97;2.13;;;;;;;;;;4974475;28;20267;-59
2023/03/01 13:49:53;;;;;;;4.60;2.73;;;;;;;;;;4974073;28;20633;-59
2023/03/01 13:52:25;;;;;;;3.23;1.13;;;;;;;;;;4971957;28;20265;-60
2023/03/01 13:54:53;;;;;;;3.10;1.50;;;;;;;;;;4969695;28;20269;-59
2023/03/01 13:57:23;;;;;;;9.40;1.83;;;;;;;;;;4969349;28;20614;-60
2023/03/01 13:59:50;;;;;;;5.40;1.93;;;;;;;;;;4969371;28;20287;-60
2023/03/01 14:02:17;;;;;;;24.97;2.87;;;;;;;;;;4971884;28;20053;-60
2023/03/01 14:04:44;;;;;;;35.47;2.73;;;;;;;;;;4974146;28;20026;-59
2023/03/01 14:07:12;;;;;;;14.70;2.63;;;;;;;;;;4974287;28;20030;-59
2023/03/01 14:09:43;;;;;;;15.10;2.47;;;;;;;;;;4974405;28;20114;-61
2023/03/01 14:12:28;;;;;;;29.47;2.23;;;;;;;;;;4974332;28;20382;-61
2023/03/01 14:15:06;;;;;;;5.00;1.85;;;;;;;;;;4970151;28;20081;-61
2023/03/01 14:17:45;;;;;;;7.00;2.23;;;;;;;;;;4969168;28;20069;-61
2023/03/01 14:20:18;;;;;;;12.10;1.87;;;;;;;;;;4969280;28;20089;-61
2023/03/01 14:22:45;;;;;;;3.33;1.40;;;;;;;;;;4969351;28;20110;-61
2023/03/01 14:25:24;;;;;;;8.33;1.53;;;;;;;;;;4972489;28;20560;-61
2023/03/01 14:27:56;;;;;;;14.00;1.67;;;;;;;;;;4973657;28;20053;-61
2023/03/01 14:30:24;;;;;;;8.13;1.60;;;;;;;;;;4973869;28;20046;-61
2023/03/01 14:33:06;;;;;;;2.63;1.33;;;;;;;;;;4973891;28;20477;-61
2023/03/01 14:35:34;;;;;;;4.57;2.17;;;;;;;;;;4973647;28;20027;-61
2023/03/01 14:38:00;;;;;;;3.00;1.77;;;;;;;;;;4968686;28;20026;-61
2023/03/01 14:40:30;;;;;;;4.27;2.50;;;;;;;;;;4968827;28;20043;-61
2023/03/01 14:42:58;;;;;;;2.60;1.70;;;;;;;;;;4968730;28;20928;-61
2023/03/01 14:45:26;;;;;;;3.23;1.93;;;;;;;;;;4968778;28;20027;-62
2023/03/01 14:47:53;;;;;;;3.20;2.03;;;;;;;;;;4973384;28;20029;-61
2023/03/01 14:50:27;;;;;;;16.33;2.20;;;;;;;;;;4973348;28;20090;-61
2023/03/01 14:52:56;;;;;;;2.83;2.03;;;;;;;;;;4973754;28;20027;-61
2023/03/01 14:55:27;;;;;;;12.83;2.90;;;;;;;;;;4973409;28;20023;-62
2023/03/01 14:57:54;;;;;;;9.33;4.37;;;;;;;;;;4973252;28;20059;-61
2023/03/01 15:00:22;;;;;;;13.73;3.63;;;;;;;;;;4968610;28;20515;-61
2023/03/01 15:02:51;;;;;;;4.17;3.03;;;;;;;;;;4968723;28;20030;-61